Time;durP1;ratioP1;P1;durP2;ratioP2;P2;SDS_P1;SDS_P2;PMS_P1;PMS_P2;Temp;Humidity;BMP_temperature;BMP_pressure;BME280_temperature;BME280_humidity;BME280_pressure;Samples;Min_cycle;Max_cycle;Signal;HPM_P1;HPM_P2
2023/11/20 00:01:47;;;;;;;0.97;0.30;;;13.10;99.90;;;;;;5072404;28;20274;-82
2023/11/20 00:04:13;;;;;;;6.03;0.73;;;13.10;99.90;;;;;;5057312;28;20939;-82
2023/11/20 00:06:39;;;;;;;0.47;0.43;;;13.20;99.90;;;;;;5056638;28;20231;-81
2023/11/20 00:09:07;;;;;;;0.40;0.40;;;13.20;99.90;;;;;;5056122;28;20225;-82
2023/11/20 00:11:33;;;;;;;0.20;0.20;;;13.20;99.90;;;;;;5056195;28;20225;-82
2023/11/20 00:13:59;;;;;;;0.23;0.23;;;13.20;99.90;;;;;;5056284;28;20251;-82
2023/11/20 00:16:25;;;;;;;0.20;0.20;;;13.00;99.90;;;;;;5057141;28;20213;-82
2023/11/20 00:18:50;;;;;;;0.00;0.00;;;13.10;99.90;;;;;;5056201;28;20185;-81
2023/11/20 00:21:16;;;;;;;0.57;0.57;;;13.10;99.90;;;;;;5040220;28;20225;-81
2023/11/20 00:23:42;;;;;;;0.20;0.20;;;13.00;99.90;;;;;;5056694;28;20252;-82
2023/11/20 00:26:14;;;;;;;0.20;0.20;;;13.00;99.90;;;;;;5055251;28;20228;-82
2023/11/20 00:28:42;;;;;;;0.30;0.10;;;13.10;99.90;;;;;;5056412;28;20213;-82
2023/11/20 00:31:17;;;;;;;0.93;0.30;;;13.00;99.90;;;;;;5073282;28;20239;-82
2023/11/20 00:33:43;;;;;;;0.20;0.20;;;13.00;99.90;;;;;;5057157;28;20221;-82
2023/11/20 00:36:09;;;;;;;1.17;1.17;;;13.00;99.90;;;;;;5055336;28;20708;-82
2023/11/20 00:38:35;;;;;;;0.13;0.13;;;13.10;99.90;;;;;;5059454;28;20218;-81
2023/11/20 00:41:02;;;;;;;0.20;0.20;;;13.00;99.90;;;;;;5060203;28;20699;-82
2023/11/20 00:43:28;;;;;;;0.50;0.50;;;13.00;99.90;;;;;;5059296;28;20182;-82
2023/11/20 00:45:54;;;;;;;0.23;0.23;;;13.10;99.90;;;;;;5060560;28;20203;-81
2023/11/20 00:48:20;;;;;;;0.73;0.73;;;13.00;99.90;;;;;;5042818;28;20892;-82
2023/11/20 00:50:45;;;;;;;0.27;0.20;;;13.10;99.90;;;;;;5042811;28;20334;-81
2023/11/20 00:53:11;;;;;;;0.20;0.20;;;13.00;99.90;;;;;;5060341;28;20799;-82
2023/11/20 00:55:37;;;;;;;0.50;0.20;;;13.20;99.90;;;;;;5059548;28;20241;-81
2023/11/20 00:58:02;;;;;;;0.27;0.27;;;13.10;99.90;;;;;;5043156;28;21229;-82
2023/11/20 01:00:28;;;;;;;0.13;0.13;;;13.10;99.90;;;;;;5042863;28;20223;-82
2023/11/20 01:02:54;;;;;;;0.40;0.40;;;13.20;99.90;;;;;;5043055;28;20229;-81
2023/11/20 01:05:22;;;;;;;0.17;0.17;;;13.10;99.90;;;;;;5043085;28;20303;-81
2023/11/20 01:07:48;;;;;;;0.30;0.30;;;13.10;99.90;;;;;;5059613;28;20759;-81
2023/11/20 01:10:14;;;;;;;2.07;1.70;;;13.10;99.90;;;;;;5060527;28;20181;-81
2023/11/20 01:12:39;;;;;;;1.13;0.43;;;13.20;99.90;;;;;;5043669;28;20549;-81
2023/11/20 01:15:06;;;;;;;1.40;0.30;;;13.10;99.90;;;;;;5042273;28;20225;-81
2023/11/20 01:17:32;;;;;;;0.40;0.40;;;13.20;99.90;;;;;;5060405;28;20257;-81
2023/11/20 01:19:57;;;;;;;0.10;0.10;;;13.10;99.90;;;;;;5042299;28;20337;-81
2023/11/20 01:22:23;;;;;;;0.13;0.13;;;13.20;99.90;;;;;;5059696;28;20193;-82
2023/11/20 01:24:50;;;;;;;0.43;0.43;;;13.10;99.90;;;;;;5042764;28;20213;-81
2023/11/20 01:27:15;;;;;;;0.37;0.37;;;13.10;99.90;;;;;;5059866;28;20214;-82
2023/11/20 01:29:41;;;;;;;0.20;0.20;;;13.10;99.90;;;;;;5042514;28;20744;-81
2023/11/20 01:32:07;;;;;;;0.13;0.13;;;13.10;99.90;;;;;;5058412;28;20332;-82
2023/11/20 01:34:33;;;;;;;0.77;0.50;;;13.10;99.90;;;;;;5041871;28;20197;-81
2023/11/20 01:36:58;;;;;;;0.47;0.20;;;13.10;99.90;;;;;;5042603;28;20552;-82
2023/11/20 01:39:24;;;;;;;2.57;0.40;;;13.10;99.90;;;;;;5059631;28;20221;-83
2023/11/20 01:41:50;;;;;;;1.50;0.67;;;13.10;99.90;;;;;;5060114;28;20264;-82
2023/11/20 01:44:16;;;;;;;0.83;0.83;;;13.10;99.90;;;;;;5058762;28;20209;-81
2023/11/20 01:46:42;;;;;;;0.63;0.30;;;13.20;99.90;;;;;;5041862;28;21018;-81
2023/11/20 01:49:08;;;;;;;0.13;0.13;;;13.20;99.90;;;;;;5059643;28;20539;-82
2023/11/20 01:51:35;;;;;;;0.23;0.23;;;13.20;99.90;;;;;;5042197;28;20307;-82
2023/11/20 01:54:02;;;;;;;0.20;0.20;;;13.20;99.90;;;;;;5041689;28;20220;-81
2023/11/20 01:56:30;;;;;;;0.47;0.47;;;13.10;99.90;;;;;;5057838;28;20282;-82
2023/11/20 01:58:58;;;;;;;0.30;0.30;;;13.20;99.90;;;;;;5042421;28;20241;-82
2023/11/20 02:01:24;;;;;;;0.60;0.60;;;13.20;99.90;;;;;;5058210;28;20255;-81
2023/11/20 02:03:58;;;;;;;1.07;0.97;;;13.10;99.90;;;;;;5042813;28;20977;-82
2023/11/20 02:06:25;;;;;;;0.17;0.17;;;13.10;99.90;;;;;;5074087;28;20217;-81
2023/11/20 02:08:51;;;;;;;1.17;0.63;;;13.10;99.90;;;;;;5058741;28;20642;-81
2023/11/20 02:11:17;;;;;;;0.40;0.40;;;13.20;99.90;;;;;;5058551;28;20692;-82
2023/11/20 02:13:44;;;;;;;0.50;0.50;;;13.20;99.90;;;;;;5058616;28;20188;-82
2023/11/20 02:16:09;;;;;;;0.57;0.57;;;13.20;99.90;;;;;;5041782;28;20217;-82
2023/11/20 02:18:35;;;;;;;1.03;0.93;;;13.10;99.90;;;;;;5057562;28;20221;-82
2023/11/20 02:21:03;;;;;;;0.50;0.50;;;13.10;99.90;;;;;;5074233;28;20577;-82
2023/11/20 02:23:29;;;;;;;4.93;1.80;;;13.20;99.90;;;;;;5041757;28;21009;-81
2023/11/20 02:26:29;;;;;;;0.80;0.80;;;13.20;99.90;;;;;;5058071;28;20239;-82
2023/11/20 02:29:08;;;;;;;0.67;0.67;;;13.10;99.90;;;;;;5073767;28;20955;-81
2023/11/20 02:31:33;;;;;;;3.47;0.93;;;13.10;99.90;;;;;;5059311;28;20345;-82
2023/11/20 02:34:02;;;;;;;0.43;0.40;;;13.20;99.90;;;;;;5058703;28;20641;-82
2023/11/20 02:36:28;;;;;;;0.40;0.40;;;13.10;99.90;;;;;;5058693;28;20236;-82
2023/11/20 02:38:54;;;;;;;2.07;1.43;;;13.20;99.90;;;;;;5057468;28;20220;-81
2023/11/20 02:41:20;;;;;;;2.33;1.40;;;13.20;99.90;;;;;;5058107;28;20221;-81
2023/11/20 02:43:46;;;;;;;0.80;0.80;;;13.10;99.90;;;;;;5041551;28;20255;-82
2023/11/20 02:46:12;;;;;;;0.43;0.43;;;13.20;99.90;;;;;;5058308;28;20288;-81
2023/11/20 02:48:37;;;;;;;0.47;0.47;;;13.20;99.90;;;;;;5056654;28;20248;-82
2023/11/20 02:51:05;;;;;;;0.97;0.87;;;13.20;99.90;;;;;;5057058;28;20222;-81
2023/11/20 02:53:31;;;;;;;1.23;1.13;;;13.20;99.90;;;;;;5041652;28;20683;-81
2023/11/20 02:55:57;;;;;;;0.27;0.27;;;13.20;99.90;;;;;;5055651;28;20260;-82
2023/11/20 02:58:23;;;;;;;1.07;0.73;;;13.30;99.90;;;;;;5041973;28;21005;-82
2023/11/20 03:00:53;;;;;;;0.33;0.33;;;13.20;99.90;;;;;;5057417;28;20304;-81
2023/11/20 03:03:19;;;;;;;0.63;0.20;;;13.20;99.90;;;;;;5048113;28;20217;-81
2023/11/20 03:05:45;;;;;;;1.00;1.00;;;13.20;99.90;;;;;;5058704;28;20229;-81
2023/11/20 03:08:11;;;;;;;0.60;0.60;;;13.20;99.90;;;;;;5057346;28;20738;-81
2023/11/20 03:10:40;;;;;;;0.63;0.50;;;13.30;99.90;;;;;;5057127;28;20208;-82
2023/11/20 03:13:05;;;;;;;1.80;1.13;;;13.20;99.90;;;;;;5040575;28;20223;-82
2023/11/20 03:15:31;;;;;;;3.80;2.00;;;13.30;99.90;;;;;;5057006;28;21020;-81
2023/11/20 03:17:57;;;;;;;1.90;0.73;;;13.10;99.90;;;;;;5058683;28;20219;-81
2023/11/20 03:20:23;;;;;;;0.53;0.53;;;13.20;99.90;;;;;;5039914;28;20225;-81
2023/11/20 03:22:50;;;;;;;5.33;1.23;;;13.20;99.90;;;;;;5038687;28;20216;-81
2023/11/20 03:25:15;;;;;;;0.87;0.87;;;13.20;99.90;;;;;;5056744;28;20740;-81
2023/11/20 03:27:42;;;;;;;4.40;0.37;;;13.10;99.90;;;;;;5055527;28;20235;-81
2023/11/20 03:30:09;;;;;;;0.83;0.77;;;13.20;99.90;;;;;;5056237;28;20252;-81
2023/11/20 03:32:36;;;;;;;2.20;1.17;;;13.20;99.90;;;;;;5055263;28;20216;-81
2023/11/20 03:35:05;;;;;;;2.83;2.73;;;13.20;99.90;;;;;;5038624;28;20324;-82
2023/11/20 03:37:31;;;;;;;0.60;0.57;;;13.10;99.90;;;;;;5055600;28;20193;-82
2023/11/20 03:39:56;;;;;;;3.70;1.23;;;13.20;99.90;;;;;;5040961;28;20247;-81
2023/11/20 03:42:22;;;;;;;0.40;0.40;;;13.20;99.90;;;;;;5039746;28;20811;-81
2023/11/20 03:44:48;;;;;;;0.97;0.70;;;13.10;99.90;;;;;;5040017;28;20236;-82
2023/11/20 03:47:14;;;;;;;0.60;0.60;;;13.00;99.90;;;;;;5057099;28;20638;-81
2023/11/20 03:49:40;;;;;;;0.40;0.33;;;13.20;99.90;;;;;;5056392;28;20280;-81
2023/11/20 03:52:06;;;;;;;2.20;1.37;;;13.10;99.90;;;;;;5040859;28;20193;-82
2023/11/20 03:54:32;;;;;;;0.67;0.67;;;13.10;99.90;;;;;;5056746;28;20217;-82
2023/11/20 03:56:58;;;;;;;1.80;0.83;;;13.10;99.90;;;;;;5039653;28;20257;-81
2023/11/20 03:59:23;;;;;;;1.33;1.23;;;13.10;99.90;;;;;;5057786;28;20311;-81
2023/11/20 04:01:50;;;;;;;2.53;1.60;;;13.10;99.90;;;;;;5056735;28;20270;-81
2023/11/20 04:04:16;;;;;;;2.00;0.97;;;13.10;99.90;;;;;;5040653;28;20319;-82
2023/11/20 04:06:41;;;;;;;3.83;0.77;;;13.10;99.90;;;;;;5057372;28;20810;-82
2023/11/20 04:09:07;;;;;;;0.67;0.50;;;13.10;99.90;;;;;;5039408;28;20747;-82
2023/11/20 04:11:33;;;;;;;1.90;1.00;;;13.00;99.90;;;;;;5041410;28;20217;-81
2023/11/20 04:13:59;;;;;;;0.20;0.20;;;13.10;99.90;;;;;;5043524;28;20583;-82
2023/11/20 04:16:25;;;;;;;1.03;1.03;;;13.00;99.90;;;;;;5059673;28;20229;-81
2023/11/20 04:18:50;;;;;;;0.60;0.60;;;13.00;99.90;;;;;;5060921;28;20284;-82
2023/11/20 04:21:17;;;;;;;1.87;0.93;;;13.00;99.90;;;;;;5043414;28;20711;-82
2023/11/20 04:23:43;;;;;;;2.53;1.33;;;13.00;99.90;;;;;;5060308;28;20936;-81
2023/11/20 04:26:09;;;;;;;1.07;0.77;;;13.00;99.90;;;;;;5059357;28;20236;-81
2023/11/20 04:28:35;;;;;;;1.80;1.17;;;13.00;99.90;;;;;;5029734;28;21207;-81
2023/11/20 04:31:01;;;;;;;0.60;0.60;;;12.90;99.90;;;;;;5044761;28;20188;-81
2023/11/20 04:33:27;;;;;;;6.63;0.80;;;12.90;99.90;;;;;;5059920;28;21066;-82
2023/11/20 04:35:53;;;;;;;2.23;1.07;;;12.90;99.90;;;;;;5059298;28;20799;-83
2023/11/20 04:38:19;;;;;;;1.07;1.07;;;12.90;99.90;;;;;;5059568;28;20212;-82
2023/11/20 04:40:48;;;;;;;0.70;0.70;;;12.90;99.90;;;;;;5044023;28;20236;-82
2023/11/20 04:43:15;;;;;;;0.80;0.80;;;13.00;99.90;;;;;;5060905;28;20197;-82
2023/11/20 04:45:40;;;;;;;3.70;0.77;;;12.90;99.90;;;;;;5044020;28;20278;-82
2023/11/20 04:48:08;;;;;;;1.63;1.10;;;12.90;99.90;;;;;;5076111;28;20221;-82
2023/11/20 04:50:34;;;;;;;0.37;0.37;;;13.00;99.90;;;;;;5044057;28;20217;-81
2023/11/20 04:53:00;;;;;;;0.53;0.53;;;12.90;99.90;;;;;;5060791;28;20587;-82
2023/11/20 04:55:26;;;;;;;0.30;0.30;;;12.90;99.90;;;;;;5059775;28;20229;-82
2023/11/20 04:57:51;;;;;;;3.33;1.40;;;12.80;99.90;;;;;;5043378;28;20863;-81
2023/11/20 05:00:18;;;;;;;10.20;1.33;;;12.80;99.90;;;;;;5058840;28;20209;-82
2023/11/20 05:02:44;;;;;;;0.37;0.37;;;12.90;99.90;;;;;;5043551;28;20209;-82
2023/11/20 05:05:10;;;;;;;0.30;0.30;;;12.80;99.90;;;;;;5059488;28;20217;-81
2023/11/20 05:07:36;;;;;;;0.50;0.50;;;12.90;99.90;;;;;;5042791;28;20708;-82
2023/11/20 05:10:05;;;;;;;0.27;0.27;;;12.80;99.90;;;;;;5060412;28;20200;-81
2023/11/20 05:12:31;;;;;;;1.13;0.43;;;12.80;99.90;;;;;;5059325;28;20205;-81
2023/11/20 05:14:57;;;;;;;0.20;0.20;;;12.80;99.90;;;;;;5043004;28;20244;-82
2023/11/20 05:17:24;;;;;;;0.40;0.40;;;12.90;99.90;;;;;;5059414;28;20217;-81
2023/11/20 05:19:49;;;;;;;0.17;0.17;;;12.80;99.90;;;;;;5043120;28;20704;-82
2023/11/20 05:22:17;;;;;;;0.23;0.23;;;12.90;99.90;;;;;;5058759;28;20197;-82
2023/11/20 05:24:43;;;;;;;0.33;0.33;;;12.80;99.90;;;;;;5058636;28;20221;-82
2023/11/20 05:27:09;;;;;;;0.93;0.93;;;12.80;99.90;;;;;;5060203;28;20228;-81
2023/11/20 05:29:39;;;;;;;0.47;0.47;;;12.90;99.90;;;;;;5057758;28;20638;-82
2023/11/20 05:32:05;;;;;;;1.00;0.77;;;12.90;99.90;;;;;;5057883;28;20247;-81
2023/11/20 05:34:33;;;;;;;0.60;0.60;;;12.80;99.90;;;;;;5059685;28;20189;-82
2023/11/20 05:36:59;;;;;;;9.67;1.27;;;12.90;99.90;;;;;;5043303;28;20193;-81
2023/11/20 05:39:25;;;;;;;0.43;0.43;;;12.80;99.90;;;;;;5041998;28;20426;-82
2023/11/20 05:41:52;;;;;;;1.20;0.90;;;12.90;99.90;;;;;;5059919;28;20719;-82
2023/11/20 05:44:19;;;;;;;0.30;0.30;;;12.70;99.90;;;;;;5042131;28;20232;-82
2023/11/20 05:46:45;;;;;;;0.80;0.80;;;12.70;99.90;;;;;;5059066;28;20610;-81
2023/11/20 05:49:10;;;;;;;0.77;0.77;;;12.70;99.90;;;;;;5042820;28;20555;-82
2023/11/20 05:51:36;;;;;;;0.60;0.60;;;12.70;99.90;;;;;;5041824;28;20217;-82
2023/11/20 05:54:02;;;;;;;0.83;0.83;;;12.80;99.90;;;;;;5042653;28;20209;-81
2023/11/20 05:56:30;;;;;;;1.73;0.80;;;12.70;99.90;;;;;;5058451;28;20442;-82
2023/11/20 05:58:56;;;;;;;0.20;0.20;;;12.70;99.90;;;;;;5059014;28;20228;-82
2023/11/20 06:01:22;;;;;;;0.37;0.37;;;12.60;99.90;;;;;;5058376;28;20185;-82
2023/11/20 06:03:48;;;;;;;0.23;0.23;;;12.70;99.90;;;;;;5058579;28;20245;-82
2023/11/20 06:06:20;;;;;;;0.83;0.83;;;12.60;99.90;;;;;;5074138;28;20224;-82
2023/11/20 06:08:47;;;;;;;4.40;0.90;;;12.60;99.90;;;;;;5057808;28;20411;-82
2023/11/20 06:11:23;;;;;;;0.43;0.43;;;12.70;99.90;;;;;;5041581;28;20225;-82
2023/11/20 06:13:49;;;;;;;4.20;1.67;;;12.60;99.90;;;;;;5057883;28;21147;-82
2023/11/20 06:16:16;;;;;;;3.00;0.83;;;12.70;99.90;;;;;;5059035;28;20213;-82
2023/11/20 06:18:42;;;;;;;6.87;0.73;;;12.70;99.90;;;;;;5041565;28;21056;-81
2023/11/20 06:21:08;;;;;;;0.73;0.73;;;12.50;99.90;;;;;;5041196;28;20220;-82
2023/11/20 06:23:34;;;;;;;0.67;0.67;;;12.50;99.90;;;;;;5058462;28;20220;-82
2023/11/20 06:26:01;;;;;;;0.33;0.33;;;12.50;99.90;;;;;;5057733;28;20241;-81
2023/11/20 06:28:27;;;;;;;0.53;0.47;;;12.50;99.90;;;;;;5041145;28;20193;-81
2023/11/20 06:30:53;;;;;;;0.30;0.20;;;12.50;99.90;;;;;;5058702;28;20299;-81
2023/11/20 06:33:20;;;;;;;1.43;0.90;;;12.50;99.90;;;;;;5040622;28;20213;-82
2023/11/20 06:35:46;;;;;;;0.70;0.70;;;12.50;99.90;;;;;;5039778;28;21060;-82
2023/11/20 06:38:12;;;;;;;2.40;0.57;;;12.60;99.90;;;;;;5058215;28;20328;-82
2023/11/20 06:40:39;;;;;;;0.70;0.70;;;12.50;99.90;;;;;;5058598;28;20208;-81
2023/11/20 06:43:06;;;;;;;0.50;0.40;;;12.60;99.90;;;;;;5057553;28;20722;-81
2023/11/20 06:45:32;;;;;;;0.60;0.60;;;12.40;99.90;;;;;;5056643;28;20221;-82
2023/11/20 06:47:58;;;;;;;0.30;0.30;;;12.40;99.90;;;;;;5040999;28;20221;-82
2023/11/20 06:50:28;;;;;;;0.20;0.20;;;12.50;99.90;;;;;;5057472;28;20539;-82
2023/11/20 06:52:54;;;;;;;0.50;0.50;;;12.50;99.90;;;;;;5056590;28;20221;-81
2023/11/20 06:55:21;;;;;;;7.63;0.57;;;12.30;99.90;;;;;;5057271;28;20268;-82
2023/11/20 06:57:47;;;;;;;0.27;0.27;;;12.40;99.90;;;;;;5056900;28;20216;-82
2023/11/20 07:00:13;;;;;;;0.20;0.20;;;12.30;99.90;;;;;;5058675;28;20279;-82
2023/11/20 07:02:39;;;;;;;1.10;0.90;;;12.40;99.90;;;;;;5056983;28;20652;-81
2023/11/20 07:05:07;;;;;;;0.63;0.50;;;12.40;99.90;;;;;;5057408;28;20408;-83
2023/11/20 07:07:40;;;;;;;0.20;0.20;;;12.40;99.90;;;;;;5057210;28;20197;-80
2023/11/20 07:10:11;;;;;;;1.30;0.93;;;12.50;99.90;;;;;;5058117;28;20185;-81
2023/11/20 07:12:40;;;;;;;2.73;1.33;;;12.50;99.90;;;;;;5039179;28;20509;-82
2023/11/20 07:15:07;;;;;;;0.80;0.40;;;12.50;99.90;;;;;;5040722;28;20225;-81
2023/11/20 07:17:35;;;;;;;0.27;0.23;;;12.40;99.90;;;;;;5039041;28;20815;-83
2023/11/20 07:20:02;;;;;;;0.83;0.63;;;12.40;99.90;;;;;;5039729;28;20208;-84
2023/11/20 07:22:28;;;;;;;0.57;0.57;;;12.40;99.90;;;;;;5056661;28;20237;-83
2023/11/20 07:24:54;;;;;;;0.50;0.50;;;12.40;99.90;;;;;;5041154;28;21181;-82
2023/11/20 07:27:20;;;;;;;1.30;1.10;;;12.40;99.90;;;;;;5056938;28;20228;-82
2023/11/20 07:29:46;;;;;;;0.87;0.83;;;12.40;99.90;;;;;;5056681;28;20671;-81
2023/11/20 07:32:12;;;;;;;0.37;0.33;;;12.40;99.90;;;;;;5058085;28;20221;-82
2023/11/20 07:34:38;;;;;;;1.77;0.40;;;12.40;99.90;;;;;;5056488;28;20216;-81
2023/11/20 07:37:04;;;;;;;1.47;0.50;;;12.40;99.90;;;;;;5040309;28;20693;-81
2023/11/20 07:39:30;;;;;;;0.80;0.80;;;12.30;99.90;;;;;;5038296;28;20266;-81
2023/11/20 07:41:56;;;;;;;1.43;1.33;;;12.30;99.90;;;;;;5057433;28;20308;-81
2023/11/20 07:44:22;;;;;;;0.77;0.50;;;12.30;99.90;;;;;;5039593;28;20224;-81
2023/11/20 07:46:48;;;;;;;9.20;1.90;;;12.30;99.90;;;;;;5072423;28;20216;-81
2023/11/20 07:49:14;;;;;;;1.10;0.93;;;12.30;99.90;;;;;;5057275;28;20561;-81
2023/11/20 07:51:40;;;;;;;2.07;0.73;;;12.30;99.90;;;;;;5056090;28;20225;-80
2023/11/20 07:54:08;;;;;;;0.30;0.30;;;12.30;99.90;;;;;;5039059;28;20593;-81
2023/11/20 07:56:35;;;;;;;2.53;0.77;;;12.40;99.90;;;;;;5055635;28;20317;-81
2023/11/20 07:59:01;;;;;;;0.30;0.30;;;12.40;99.90;;;;;;5071964;28;20671;-82
2023/11/20 08:01:27;;;;;;;10.83;1.07;;;12.30;99.90;;;;;;5055729;28;20185;-81
2023/11/20 08:03:52;;;;;;;4.77;0.80;;;12.40;99.90;;;;;;5057052;28;20339;-81
2023/11/20 08:06:19;;;;;;;1.90;0.90;;;12.40;99.90;;;;;;5039985;28;20221;-81
2023/11/20 08:08:45;;;;;;;1.90;1.50;;;12.40;99.90;;;;;;5056385;28;20225;-82
2023/11/20 08:11:12;;;;;;;2.53;0.77;;;12.60;99.90;;;;;;5056969;28;20541;-82
2023/11/20 08:13:37;;;;;;;2.03;1.83;;;12.50;99.90;;;;;;5039667;28;20518;-81
2023/11/20 08:16:04;;;;;;;1.37;1.13;;;12.60;99.90;;;;;;5022849;28;20988;-81
2023/11/20 08:18:30;;;;;;;1.10;0.87;;;12.50;99.90;;;;;;5055405;28;20692;-81
2023/11/20 08:20:56;;;;;;;3.27;0.77;;;12.60;99.90;;;;;;5056041;28;20231;-82
2023/11/20 08:23:22;;;;;;;0.80;0.80;;;12.60;99.90;;;;;;5054287;28;20221;-81
2023/11/20 08:25:48;;;;;;;0.90;0.63;;;12.50;99.90;;;;;;5038846;28;20598;-82
2023/11/20 08:28:13;;;;;;;1.00;0.97;;;12.40;99.90;;;;;;5056305;28;20719;-82
2023/11/20 08:30:40;;;;;;;7.30;2.30;;;12.50;99.90;;;;;;5054166;28;20221;-82
2023/11/20 08:33:07;;;;;;;0.80;0.80;;;12.40;99.90;;;;;;5054271;28;20739;-82
2023/11/20 08:35:34;;;;;;;1.60;1.10;;;12.50;99.90;;;;;;5038015;28;20260;-82
2023/11/20 08:38:00;;;;;;;2.77;0.90;;;12.50;99.90;;;;;;5038430;28;20229;-82
2023/11/20 08:40:26;;;;;;;14.87;0.77;;;12.50;99.90;;;;;;5038722;28;20754;-81
2023/11/20 08:42:52;;;;;;;11.60;0.90;;;12.40;99.90;;;;;;5055554;28;20181;-81
2023/11/20 08:45:19;;;;;;;0.70;0.70;;;12.40;99.90;;;;;;5054805;28;20216;-81
2023/11/20 08:47:47;;;;;;;1.40;1.30;;;12.40;99.90;;;;;;5055094;28;20209;-81
2023/11/20 08:50:14;;;;;;;0.60;0.60;;;12.50;99.90;;;;;;5054458;28;20225;-81
2023/11/20 08:52:42;;;;;;;1.13;0.50;;;12.50;99.90;;;;;;5039034;28;20185;-82
2023/11/20 08:55:08;;;;;;;1.93;1.30;;;12.40;99.90;;;;;;5039081;28;20241;-81
2023/11/20 08:57:35;;;;;;;6.67;0.43;;;12.50;99.90;;;;;;5038263;28;20226;-81
2023/11/20 09:00:03;;;;;;;12.50;0.57;;;12.40;99.90;;;;;;5056223;28;20225;-81
2023/11/20 09:02:29;;;;;;;1.30;1.20;;;12.30;99.90;;;;;;5041105;28;20217;-82
2023/11/20 09:04:55;;;;;;;0.40;0.40;;;12.30;99.90;;;;;;5041931;28;20228;-81
2023/11/20 09:07:21;;;;;;;2.10;0.80;;;12.30;99.90;;;;;;5042522;28;20190;-82
2023/11/20 09:09:47;;;;;;;1.00;0.97;;;12.30;99.90;;;;;;5059468;28;20224;-81
2023/11/20 09:12:12;;;;;;;6.60;0.63;;;12.30;99.90;;;;;;5059404;28;20648;-82
2023/11/20 09:14:38;;;;;;;5.27;0.50;;;12.30;99.90;;;;;;5059089;28;20693;-81
2023/11/20 09:17:04;;;;;;;0.67;0.67;;;12.30;99.90;;;;;;5059227;28;20263;-81
2023/11/20 09:19:30;;;;;;;5.83;1.37;;;12.30;99.90;;;;;;5042802;28;20220;-83
2023/11/20 09:21:56;;;;;;;3.40;0.83;;;12.20;99.90;;;;;;5060578;28;21012;-81
2023/11/20 09:24:21;;;;;;;1.40;0.73;;;12.30;99.90;;;;;;5058808;28;20241;-82
2023/11/20 09:26:47;;;;;;;0.40;0.40;;;12.20;99.90;;;;;;5057473;28;20225;-81
2023/11/20 09:29:13;;;;;;;10.93;1.73;;;12.30;99.90;;;;;;5057835;28;20221;-81
2023/11/20 09:31:41;;;;;;;1.80;0.60;;;12.30;99.90;;;;;;5056629;28;20984;-81
2023/11/20 09:34:06;;;;;;;3.30;1.07;;;12.30;99.90;;;;;;5058721;28;20190;-82
2023/11/20 09:36:32;;;;;;;7.93;0.33;;;12.40;99.90;;;;;;5040698;28;20298;-81
2023/11/20 09:38:58;;;;;;;0.43;0.43;;;12.40;99.90;;;;;;5039185;28;20221;-80
2023/11/20 09:41:26;;;;;;;1.47;1.17;;;12.40;99.90;;;;;;5057081;28;21079;-81
2023/11/20 09:43:53;;;;;;;7.10;1.27;;;12.50;99.90;;;;;;5053639;28;20221;-81
2023/11/20 09:46:20;;;;;;;8.47;1.73;;;12.40;99.90;;;;;;5052915;28;20247;-81
2023/11/20 09:48:48;;;;;;;1.13;1.13;;;12.40;99.90;;;;;;5055947;28;20221;-81
2023/11/20 09:51:19;;;;;;;3.63;0.80;;;12.40;99.90;;;;;;5041383;28;20213;-80
2023/11/20 09:53:49;;;;;;;1.80;0.40;;;12.40;99.90;;;;;;5057804;28;20241;-81
2023/11/20 09:56:15;;;;;;;0.10;0.10;;;12.50;99.90;;;;;;5058909;28;20779;-81
2023/11/20 09:58:42;;;;;;;0.40;0.40;;;12.50;99.90;;;;;;5058353;28;20247;-82
2023/11/20 10:01:12;;;;;;;11.23;1.03;;;12.60;99.90;;;;;;5058413;28;20189;-81
2023/11/20 10:03:42;;;;;;;0.87;0.60;;;12.60;99.90;;;;;;5056181;28;21073;-81
2023/11/20 10:06:17;;;;;;;1.13;0.57;;;12.70;99.90;;;;;;5056672;28;20289;-80
2023/11/20 10:08:45;;;;;;;0.57;0.57;;;12.80;99.90;;;;;;5042958;28;20212;-81
2023/11/20 10:11:15;;;;;;;0.90;0.90;;;12.80;99.90;;;;;;5041213;28;20220;-81
2023/11/20 10:13:41;;;;;;;1.03;0.97;;;12.80;99.90;;;;;;5041352;28;20177;-81
2023/11/20 10:16:17;;;;;;;1.73;1.57;;;13.10;99.90;;;;;;5059130;28;20212;-80
2023/11/20 10:18:43;;;;;;;9.63;0.70;;;13.10;99.90;;;;;;5057768;28;20338;-81
2023/11/20 10:21:12;;;;;;;0.43;0.43;;;13.00;99.90;;;;;;5058502;28;20252;-80
2023/11/20 10:23:41;;;;;;;5.47;1.07;;;13.00;99.90;;;;;;5058267;28;20311;-82
2023/11/20 10:26:07;;;;;;;3.93;0.63;;;13.10;99.90;;;;;;5057984;28;20212;-82
2023/11/20 10:28:40;;;;;;;0.30;0.30;;;13.10;99.90;;;;;;5057702;28;20276;-84
2023/11/20 10:31:06;;;;;;;0.73;0.63;;;13.10;99.90;;;;;;5060284;28;20182;-83
2023/11/20 10:33:33;;;;;;;7.77;1.40;;;13.20;99.90;;;;;;5041797;28;20263;-80
2023/11/20 10:36:11;;;;;;;11.27;1.30;;;13.20;99.90;;;;;;5058676;28;20686;-82
2023/11/20 10:38:37;;;;;;;0.73;0.70;;;13.20;99.90;;;;;;5056606;28;20232;-81
2023/11/20 10:41:10;;;;;;;0.73;0.63;;;13.20;99.90;;;;;;5041676;28;20221;-81
2023/11/20 10:43:40;;;;;;;4.93;0.73;;;13.10;99.90;;;;;;5057884;28;20189;-81
2023/11/20 10:46:06;;;;;;;2.10;2.00;;;13.10;99.90;;;;;;5057538;28;20259;-81
2023/11/20 10:48:41;;;;;;;0.97;0.50;;;13.10;99.90;;;;;;5056273;28;20332;-81
2023/11/20 10:51:13;;;;;;;2.50;0.93;;;13.10;99.90;;;;;;5058686;28;20205;-81
2023/11/20 10:53:41;;;;;;;6.37;0.80;;;13.10;99.90;;;;;;5057283;28;20224;-80
2023/11/20 10:56:08;;;;;;;3.20;2.10;;;13.10;99.90;;;;;;5040746;28;20240;-82
2023/11/20 10:58:34;;;;;;;0.10;0.10;;;13.20;99.90;;;;;;5056482;28;20259;-82
2023/11/20 11:01:01;;;;;;;4.70;1.20;;;13.20;99.90;;;;;;5040979;28;20196;-81
2023/11/20 11:03:28;;;;;;;0.73;0.73;;;13.20;99.90;;;;;;5057662;28;20250;-81
2023/11/20 11:05:55;;;;;;;0.40;0.40;;;13.40;99.90;;;;;;5057288;28;20231;-82
2023/11/20 11:08:22;;;;;;;3.47;0.70;;;13.60;99.90;;;;;;5055574;28;20213;-82
2023/11/20 11:10:48;;;;;;;1.63;1.53;;;13.60;99.90;;;;;;5057138;28;20225;-82
2023/11/20 11:13:18;;;;;;;0.63;0.63;;;13.60;99.90;;;;;;5057686;28;20189;-82
2023/11/20 11:15:50;;;;;;;1.50;1.40;;;13.50;99.90;;;;;;5054948;28;20248;-82
2023/11/20 11:18:23;;;;;;;8.80;1.60;;;13.70;99.90;;;;;;5056279;28;20273;-82
2023/11/20 11:20:53;;;;;;;0.67;0.50;;;13.90;99.90;;;;;;5056058;28;20217;-84
2023/11/20 11:23:34;;;;;;;4.20;1.47;;;13.80;99.90;;;;;;5056510;28;20308;-82
2023/11/20 11:26:21;;;;;;;4.33;0.80;;;13.90;99.90;;;;;;5055453;28;20213;-82
2023/11/20 11:29:00;;;;;;;10.50;1.30;;;13.90;99.90;;;;;;5056578;28;20217;-81
2023/11/20 11:32:00;;;;;;;1.87;1.13;;;14.10;99.90;;;;;;5057190;28;21077;-82
2023/11/20 11:34:45;;;;;;;0.63;0.63;;;14.10;99.90;;;;;;5027228;28;20343;-81
2023/11/20 11:37:42;;;;;;;2.60;1.23;;;14.10;99.90;;;;;;5058775;28;20189;-81
2023/11/20 11:40:28;;;;;;;2.23;0.93;;;14.00;99.90;;;;;;5056859;28;20217;-82
2023/11/20 11:42:58;;;;;;;16.13;1.67;;;14.00;99.90;;;;;;5058479;28;20649;-83
2023/11/20 11:45:30;;;;;;;1.60;1.50;;;13.90;99.90;;;;;;5058279;28;20290;-83
2023/11/20 11:47:56;;;;;;;1.40;1.30;;;14.00;99.90;;;;;;5057299;28;20236;-84
2023/11/20 11:50:21;;;;;;;2.30;0.73;;;14.00;99.90;;;;;;5040825;28;20217;-82
2023/11/20 11:52:48;;;;;;;4.07;1.23;;;13.90;99.90;;;;;;5054911;28;20221;-82
2023/11/20 11:55:16;;;;;;;1.00;1.00;;;13.90;99.90;;;;;;5040146;28;20307;-82
2023/11/20 11:57:43;;;;;;;0.73;0.47;;;13.90;99.90;;;;;;5057151;28;20221;-82
2023/11/20 12:00:21;;;;;;;2.97;0.47;;;13.80;99.90;;;;;;5057074;28;20662;-82
2023/11/20 12:02:54;;;;;;;4.30;1.97;;;13.80;99.90;;;;;;5057021;28;20209;-85
2023/11/20 12:05:20;;;;;;;3.43;1.90;;;13.80;99.90;;;;;;5058592;28;20224;-84
2023/11/20 12:07:52;;;;;;;1.67;1.60;;;13.80;99.90;;;;;;5056074;28;20715;-85
2023/11/20 12:10:38;;;;;;;5.57;1.33;;;13.80;99.90;;;;;;5057259;28;20201;-84
2023/11/20 12:13:09;;;;;;;13.70;1.37;;;13.80;99.90;;;;;;5058327;28;20598;-86
2023/11/20 12:15:50;;;;;;;8.27;1.77;;;13.70;99.90;;;;;;5039729;28;20256;-87
2023/11/20 12:18:21;;;;;;;1.00;1.00;;;13.80;99.90;;;;;;5058148;28;20217;-83
2023/11/20 12:20:50;;;;;;;0.87;0.83;;;13.70;99.90;;;;;;5072386;28;20244;-85
2023/11/20 12:23:22;;;;;;;1.20;1.07;;;13.70;99.90;;;;;;5055919;28;20213;-85
2023/11/20 12:25:48;;;;;;;3.97;1.23;;;13.50;99.90;;;;;;5056394;28;20744;-85
2023/11/20 12:28:14;;;;;;;9.07;1.47;;;13.50;99.90;;;;;;5041314;28;20296;-85
2023/11/20 12:30:41;;;;;;;0.60;0.60;;;13.40;99.90;;;;;;5057815;28;20593;-85
2023/11/20 12:33:07;;;;;;;0.97;0.50;;;13.30;99.90;;;;;;5059628;28;20755;-86
2023/11/20 12:35:34;;;;;;;8.17;1.03;;;13.20;99.90;;;;;;5043631;28;20236;-86
2023/11/20 12:38:00;;;;;;;2.67;1.13;;;13.20;99.90;;;;;;5060450;28;20273;-86
2023/11/20 12:40:26;;;;;;;1.30;0.30;;;13.20;99.90;;;;;;5079931;28;20224;-84
2023/11/20 12:42:52;;;;;;;0.57;0.57;;;13.20;99.90;;;;;;5065586;28;20193;-85
2023/11/20 12:45:18;;;;;;;11.43;1.20;;;13.10;99.90;;;;;;5064488;28;20223;-85
2023/11/20 12:47:44;;;;;;;3.83;1.57;;;13.10;99.90;;;;;;5046815;28;20268;-87